createdAt,value
2023-02-27T00:00:16.653Z,69.81
2023-02-27T00:02:49.273Z,69.47
2023-02-27T00:05:16.946Z,69.73
2023-02-27T00:07:44.433Z,69.66
2023-02-27T00:10:12.491Z,70.80
2023-02-27T00:12:39.474Z,70.30
2023-02-27T00:15:18.720Z,70.47
2023-02-27T00:17:45.885Z,71.14
2023-02-27T00:20:15.427Z,70.62
2023-02-27T00:22:43.078Z,71.02
2023-02-27T00:25:10.987Z,70.96
2023-02-27T00:27:38.205Z,71.34
2023-02-27T00:30:07.210Z,71.38
2023-02-27T00:32:36.722Z,71.87
2023-02-27T00:35:09.156Z,71.63
2023-02-27T00:37:36.280Z,71.78
2023-02-27T00:40:07.523Z,72.71
2023-02-27T00:42:35.325Z,72.80
2023-02-27T00:45:03.262Z,71.72
2023-02-27T00:47:30.258Z,71.78
2023-02-27T00:49:57.227Z,71.92
2023-02-27T00:52:24.193Z,72.31
2023-02-27T00:54:51.350Z,72.33
2023-02-27T00:57:18.563Z,71.81
2023-02-27T00:59:46.648Z,71.97
2023-02-27T01:02:13.602Z,71.67
2023-02-27T01:04:40.719Z,72.24
2023-02-27T01:07:08.028Z,70.38
2023-02-27T01:09:35.912Z,70.62
2023-02-27T01:12:02.824Z,70.41
2023-02-27T01:14:30.006Z,71.74
2023-02-27T01:16:58.229Z,71.16
2023-02-27T01:19:25.875Z,70.31
2023-02-27T01:21:52.982Z,71.44
2023-02-27T01:24:20.022Z,70.01
2023-02-27T01:26:47.662Z,70.45
2023-02-27T01:29:15.592Z,69.52
2023-02-27T01:31:42.850Z,69.54
2023-02-27T01:34:09.813Z,69.73
2023-02-27T01:36:36.696Z,69.41
2023-02-27T01:39:03.990Z,69.62
2023-02-27T01:41:31.811Z,68.96
2023-02-27T01:44:08.574Z,68.62
2023-02-27T01:46:35.775Z,69.53
2023-02-27T01:49:08.628Z,68.81
2023-02-27T01:51:45.197Z,68.49
2023-02-27T01:54:15.062Z,68.74
2023-02-27T01:56:42.651Z,68.54
2023-02-27T01:59:11.274Z,68.82
2023-02-27T02:01:39.372Z,68.83
2023-02-27T02:04:29.116Z,68.38
2023-02-27T02:07:00.475Z,68.68
2023-02-27T02:09:30.087Z,68.31
2023-02-27T02:11:59.440Z,68.86
2023-02-27T02:14:26.392Z,69.01
2023-02-27T02:17:05.308Z,69.10
2023-02-27T02:19:56.331Z,68.49
2023-02-27T02:22:26.314Z,67.10
2023-02-27T02:25:14.630Z,67.75
2023-02-27T02:28:03.004Z,67.64
2023-02-27T02:30:48.690Z,67.30
2023-02-27T02:33:21.763Z,67.73
2023-02-27T02:36:33.614Z,67.40
2023-02-27T02:39:14.467Z,67.50
2023-02-27T02:41:41.427Z,67.37
2023-02-27T02:44:36.578Z,67.80
2023-02-27T02:47:22.736Z,68.12
2023-02-27T02:49:54.211Z,68.83
2023-02-27T02:52:21.026Z,69.02
2023-02-27T02:55:09.628Z,68.98
2023-02-27T02:58:21.961Z,69.21
2023-02-27T03:01:03.753Z,69.46
2023-02-27T03:03:39.487Z,69.53
2023-02-27T03:06:15.001Z,70.23
2023-02-27T03:08:51.117Z,69.95
2023-02-27T03:11:18.237Z,69.69
2023-02-27T03:13:51.444Z,70.11
2023-02-27T03:16:25.257Z,69.93
2023-02-27T03:19:16.092Z,70.28
2023-02-27T03:21:49.730Z,70.15
2023-02-27T03:24:45.620Z,70.61
2023-02-27T03:27:13.594Z,70.99
2023-02-27T03:29:42.829Z,70.38
2023-02-27T03:32:17.781Z,70.38
2023-02-27T03:34:45.906Z,69.95
2023-02-27T03:37:39.740Z,70.54
2023-02-27T03:40:17.212Z,70.33
2023-02-27T03:42:53.861Z,70.74
2023-02-27T03:45:20.581Z,70.37
2023-02-27T03:47:47.650Z,70.15
2023-02-27T03:50:15.376Z,70.12
2023-02-27T03:52:43.090Z,71.13
2023-02-27T03:55:15.797Z,70.33
2023-02-27T03:57:45.093Z,70.69
2023-02-27T04:00:17.379Z,70.81
2023-02-27T04:02:46.596Z,70.44
2023-02-27T04:05:13.482Z,70.78
2023-02-27T04:08:07.667Z,70.65
2023-02-27T04:10:49.543Z,70.65
2023-02-27T04:13:22.501Z,71.62
2023-02-27T04:16:06.770Z,70.61
2023-02-27T04:19:01.618Z,70.15
2023-02-27T04:22:01.866Z,69.50
2023-02-27T04:25:05.819Z,69.17
2023-02-27T04:27:32.654Z,68.53
2023-02-27T04:30:22.418Z,69.10
2023-02-27T04:32:54.596Z,68.79
2023-02-27T04:35:39.098Z,69.38
2023-02-27T04:38:20.561Z,69.71
2023-02-27T04:40:59.637Z,69.37
2023-02-27T04:43:29.427Z,70.49
2023-02-27T04:45:58.802Z,70.03
2023-02-27T04:48:29.658Z,70.39
2023-02-27T04:51:11.415Z,69.93
2023-02-27T04:53:54.771Z,70.01
2023-02-27T04:57:02.224Z,70.06
2023-02-27T04:59:36.615Z,71.56
2023-02-27T05:02:12.856Z,70.83
2023-02-27T05:04:43.510Z,71.11
2023-02-27T05:07:15.801Z,71.52
2023-02-27T05:09:55.379Z,70.99
2023-02-27T05:12:34.400Z,71.37
2023-02-27T05:15:27.535Z,71.68
2023-02-27T05:18:04.520Z,71.75
2023-02-27T05:20:40.949Z,70.60
2023-02-27T05:23:56.194Z,70.78
2023-02-27T05:26:32.099Z,70.30
2023-02-27T05:29:07.792Z,71.73
2023-02-27T05:31:50.172Z,70.47
2023-02-27T05:34:22.960Z,71.13
2023-02-27T05:37:02.290Z,70.85
2023-02-27T05:39:34.652Z,71.16
2023-02-27T05:42:11.662Z,71.00
2023-02-27T05:44:44.143Z,71.37
2023-02-27T05:47:17.362Z,72.09
2023-02-27T05:50:00.128Z,71.70
2023-02-27T05:52:29.565Z,71.34
2023-02-27T05:54:58.804Z,70.84
2023-02-27T05:58:12.179Z,70.59
2023-02-27T06:00:54.369Z,70.87
2023-02-27T06:03:21.598Z,70.85
2023-02-27T06:05:53.142Z,70.99
2023-02-27T06:08:21.784Z,70.31
2023-02-27T06:10:51.929Z,70.44
2023-02-27T06:13:19.214Z,70.90
2023-02-27T06:15:46.219Z,70.38
2023-02-27T06:18:15.083Z,69.85
2023-02-27T06:20:43.679Z,69.52
2023-02-27T06:23:11.769Z,69.94
2023-02-27T06:25:39.585Z,69.10
2023-02-27T06:28:06.488Z,68.99
2023-02-27T06:30:33.592Z,69.12
2023-02-27T06:33:01.140Z,68.69
2023-02-27T06:35:29.516Z,68.56
2023-02-27T06:37:56.804Z,68.39
2023-02-27T06:40:24.111Z,67.46
2023-02-27T06:42:51.261Z,66.69
2023-02-27T06:45:18.260Z,67.25
2023-02-27T06:47:45.209Z,67.43
2023-02-27T06:50:14.344Z,67.16
2023-02-27T06:52:41.992Z,67.45
2023-02-27T06:55:09.905Z,67.23
2023-02-27T06:57:36.753Z,66.42
2023-02-27T07:00:07.233Z,67.05
2023-02-27T07:02:34.428Z,66.92
2023-02-27T07:05:08.269Z,65.16
2023-02-27T07:07:38.012Z,65.48
2023-02-27T07:10:11.873Z,65.95
2023-02-27T07:12:40.156Z,64.31
2023-02-27T07:15:08.593Z,64.83
2023-02-27T07:17:36.096Z,62.06
2023-02-27T07:20:04.091Z,63.21
2023-02-27T07:22:31.130Z,63.36
2023-02-27T07:24:57.948Z,63.38
2023-02-27T07:27:24.923Z,62.04
2023-02-27T07:29:52.819Z,60.88
2023-02-27T07:32:19.966Z,61.46
2023-02-27T07:34:46.911Z,59.65
2023-02-27T07:37:14.140Z,58.68
2023-02-27T07:39:41.734Z,58.10
2023-02-27T07:42:08.796Z,57.77
2023-02-27T07:44:35.783Z,58.67
2023-02-27T07:47:03.200Z,57.08
2023-02-27T07:49:30.171Z,56.91
2023-02-27T07:51:57.276Z,57.65
2023-02-27T07:54:24.491Z,58.01
2023-02-27T07:56:51.415Z,56.46
2023-02-27T07:59:18.363Z,57.29
2023-02-27T08:01:45.433Z,56.04
2023-02-27T08:04:12.363Z,55.84
2023-02-27T08:06:39.918Z,54.80
2023-02-27T08:09:07.042Z,56.38
2023-02-27T08:11:33.931Z,54.13
2023-02-27T08:14:02.066Z,53.80
2023-02-27T08:16:31.123Z,53.53
2023-02-27T08:18:59.339Z,54.44
2023-02-27T08:21:26.810Z,53.83
2023-02-27T08:23:54.686Z,52.89
2023-02-27T08:26:21.963Z,52.81
2023-02-27T08:28:48.942Z,51.95
2023-02-27T08:31:16.250Z,52.37
2023-02-27T08:33:43.140Z,50.62
2023-02-27T08:36:10.283Z,50.74
2023-02-27T08:38:37.879Z,51.12
2023-02-27T08:41:04.884Z,50.31
2023-02-27T08:43:31.770Z,50.81
2023-02-27T08:45:58.922Z,50.15
2023-02-27T08:48:25.995Z,49.64
2023-02-27T08:50:53.204Z,50.31
2023-02-27T08:53:20.163Z,50.99
2023-02-27T08:55:53.913Z,50.07
2023-02-27T08:58:20.916Z,49.82
2023-02-27T09:00:47.960Z,49.61
2023-02-27T09:03:15.233Z,48.91
2023-02-27T09:05:42.901Z,49.28
2023-02-27T09:08:09.982Z,48.91
2023-02-27T09:10:37.001Z,48.36
2023-02-27T09:13:04.376Z,48.92
2023-02-27T09:15:32.628Z,48.94
2023-02-27T09:18:03.236Z,48.64
2023-02-27T09:20:35.817Z,48.21
2023-02-27T09:23:04.004Z,48.53
2023-02-27T09:25:31.088Z,48.20
2023-02-27T09:27:58.321Z,48.50
2023-02-27T09:30:25.415Z,48.34
2023-02-27T09:32:52.490Z,47.34
2023-02-27T09:35:22.778Z,46.50
2023-02-27T09:37:50.046Z,46.60
2023-02-27T09:40:25.510Z,46.22
2023-02-27T09:42:57.083Z,45.79
2023-02-27T09:45:26.744Z,45.38
2023-02-27T09:47:58.847Z,46.01
2023-02-27T09:50:44.704Z,44.78
2023-02-27T09:53:37.961Z,45.85
2023-02-27T09:56:28.991Z,46.24
2023-02-27T09:59:24.122Z,45.54
2023-02-27T10:02:12.850Z,44.93
2023-02-27T10:05:16.892Z,45.17
2023-02-27T10:08:01.512Z,44.03
2023-02-27T10:10:43.468Z,45.36
2023-02-27T10:13:52.107Z,45.38
2023-02-27T10:16:21.778Z,45.23
2023-02-27T10:18:58.536Z,44.45
2023-02-27T10:21:33.604Z,44.03
2023-02-27T10:24:07.676Z,43.50
2023-02-27T10:26:41.848Z,43.90
2023-02-27T10:29:33.538Z,43.13
2023-02-27T10:32:11.397Z,41.70
2023-02-27T10:34:41.651Z,41.76
2023-02-27T10:37:15.576Z,41.56
2023-02-27T10:39:53.336Z,40.59
2023-02-27T10:42:22.088Z,40.38
2023-02-27T10:44:53.623Z,41.00
2023-02-27T10:47:25.131Z,40.93
2023-02-27T10:49:54.888Z,40.65
2023-02-27T10:52:22.076Z,41.30
2023-02-27T10:54:48.979Z,41.47
2023-02-27T10:57:33.631Z,40.82
2023-02-27T11:00:07.187Z,40.12
2023-02-27T11:02:42.789Z,40.62
2023-02-27T11:05:31.414Z,39.32
2023-02-27T11:08:11.905Z,40.24
2023-02-27T11:10:54.580Z,39.29
2023-02-27T11:13:24.743Z,38.23
2023-02-27T11:16:07.921Z,37.86
2023-02-27T11:18:37.228Z,37.33
2023-02-27T11:21:23.998Z,38.20
2023-02-27T11:23:54.980Z,38.61
2023-02-27T11:26:25.589Z,38.89
2023-02-27T11:29:06.169Z,38.62
2023-02-27T11:31:35.687Z,39.78
2023-02-27T11:34:04.989Z,40.78
2023-02-27T11:36:46.984Z,40.52
2023-02-27T11:39:25.484Z,40.44
2023-02-27T11:41:56.403Z,40.47
2023-02-27T11:44:38.713Z,38.81
2023-02-27T11:47:24.244Z,38.22
2023-02-27T11:50:04.216Z,38.43
2023-02-27T11:52:46.965Z,39.55
2023-02-27T11:55:21.745Z,39.14
2023-02-27T11:57:58.332Z,39.64
2023-02-27T12:00:45.603Z,38.58
2023-02-27T12:03:32.367Z,37.34
2023-02-27T12:06:04.907Z,37.07
2023-02-27T12:08:42.258Z,37.64
2023-02-27T12:11:37.194Z,38.81
2023-02-27T12:14:09.256Z,39.41
2023-02-27T12:16:51.079Z,39.22
2023-02-27T12:19:20.868Z,39.66
2023-02-27T12:21:54.248Z,40.70
2023-02-27T12:24:31.473Z,40.90
2023-02-27T12:27:19.280Z,39.88
2023-02-27T12:30:02.777Z,40.26
2023-02-27T12:32:49.954Z,38.55
2023-02-27T12:35:23.268Z,39.91
2023-02-27T12:37:51.456Z,39.12
2023-02-27T12:40:20.564Z,39.47
2023-02-27T12:43:07.926Z,38.28
2023-02-27T12:45:52.710Z,37.74
2023-02-27T12:48:55.026Z,36.65
2023-02-27T12:51:31.049Z,36.55
2023-02-27T12:54:07.055Z,36.56
2023-02-27T12:56:51.902Z,36.04
2023-02-27T12:59:40.096Z,35.89
2023-02-27T13:02:34.390Z,35.82
2023-02-27T13:05:20.414Z,36.37
2023-02-27T13:07:50.317Z,36.06
2023-02-27T13:10:28.385Z,35.74
2023-02-27T13:13:03.537Z,35.92
2023-02-27T13:15:39.109Z,36.14
2023-02-27T13:18:33.879Z,34.20
2023-02-27T13:21:15.042Z,32.23
2023-02-27T13:23:53.093Z,32.23
2023-02-27T13:26:45.092Z,31.09
2023-02-27T13:29:17.173Z,31.37
2023-02-27T13:31:44.213Z,31.96
2023-02-27T13:34:20.132Z,31.49
2023-02-27T13:37:02.229Z,31.58
2023-02-27T13:39:56.258Z,32.30
2023-02-27T13:42:25.799Z,33.59
2023-02-27T13:44:52.835Z,32.59
2023-02-27T13:47:40.487Z,34.52
2023-02-27T13:50:21.341Z,35.17
2023-02-27T13:52:48.540Z,36.53
2023-02-27T13:55:37.799Z,36.58
2023-02-27T13:58:05.753Z,36.39
2023-02-27T14:00:37.956Z,36.80
2023-02-27T14:03:22.055Z,36.96
2023-02-27T14:05:53.123Z,36.91
2023-02-27T14:08:35.552Z,37.01
2023-02-27T14:11:16.470Z,36.61
2023-02-27T14:13:54.626Z,36.98
2023-02-27T14:16:44.255Z,37.27
2023-02-27T14:19:18.177Z,38.94
2023-02-27T14:21:57.022Z,38.46
2023-02-27T14:24:29.160Z,38.57
2023-02-27T14:26:56.748Z,39.42
2023-02-27T14:29:33.445Z,39.38
2023-02-27T14:32:04.462Z,38.48
2023-02-27T14:34:31.528Z,39.11
2023-02-27T14:37:01.847Z,38.94
2023-02-27T14:39:33.429Z,39.38
2023-02-27T14:42:22.191Z,39.08
2023-02-27T14:44:51.018Z,38.61
2023-02-27T14:47:35.166Z,38.36
2023-02-27T14:50:06.982Z,38.37
2023-02-27T14:52:42.352Z,38.19
2023-02-27T14:55:30.035Z,37.74
2023-02-27T14:58:18.633Z,36.51
2023-02-27T15:01:08.129Z,37.89
2023-02-27T15:03:44.216Z,36.53
2023-02-27T15:06:21.867Z,36.98
2023-02-27T15:08:52.657Z,38.33
2023-02-27T15:11:22.324Z,37.56
2023-02-27T15:13:57.885Z,36.96
2023-02-27T15:16:36.394Z,37.00
2023-02-27T15:19:17.783Z,37.02
2023-02-27T15:21:58.748Z,37.77
2023-02-27T15:24:28.585Z,37.88
2023-02-27T15:27:00.819Z,38.25
2023-02-27T15:29:34.512Z,38.63
2023-02-27T15:32:03.137Z,39.60
2023-02-27T15:34:35.469Z,39.71
2023-02-27T15:37:05.698Z,39.32
2023-02-27T15:39:34.489Z,39.47
2023-02-27T15:42:04.340Z,39.99
2023-02-27T15:44:40.996Z,39.25
2023-02-27T15:47:15.781Z,39.08
2023-02-27T15:49:43.288Z,39.35
2023-02-27T15:52:20.398Z,40.46
2023-02-27T15:55:02.793Z,41.03
2023-02-27T15:57:30.781Z,42.27
2023-02-27T15:59:59.940Z,43.12
2023-02-27T16:02:30.844Z,43.16
2023-02-27T16:04:58.232Z,43.44
2023-02-27T16:07:27.337Z,44.85
2023-02-27T16:10:03.952Z,44.96
2023-02-27T16:12:33.198Z,45.15
2023-02-27T16:15:34.670Z,45.54
2023-02-27T16:18:06.750Z,46.54
2023-02-27T16:20:50.687Z,46.93
2023-02-27T16:23:29.478Z,47.63
2023-02-27T16:26:05.119Z,47.50
2023-02-27T16:28:56.699Z,48.39
2023-02-27T16:31:33.103Z,49.31
2023-02-27T16:34:14.261Z,50.60
2023-02-27T16:36:46.691Z,49.63
2023-02-27T16:39:16.069Z,51.12
2023-02-27T16:41:43.671Z,52.08
2023-02-27T16:44:10.883Z,52.74
2023-02-27T16:46:37.884Z,53.60
2023-02-27T16:49:19.248Z,55.39
2023-02-27T16:51:47.172Z,53.68
2023-02-27T16:57:46.567Z,53.37
2023-02-27T17:00:18.148Z,53.37
2023-02-27T17:02:48.923Z,55.01
2023-02-27T17:05:16.543Z,55.34
2023-02-27T17:07:45.253Z,55.56
2023-02-27T17:10:22.445Z,56.57
2023-02-27T17:12:49.622Z,56.47
2023-02-27T17:15:17.053Z,56.61
2023-02-27T17:17:45.279Z,56.66
2023-02-27T17:20:14.796Z,57.44
2023-02-27T17:22:47.835Z,57.38
2023-02-27T17:25:15.171Z,57.49
2023-02-27T17:27:43.844Z,57.54
2023-02-27T17:30:12.900Z,58.07
2023-02-27T17:32:40.294Z,59.54
2023-02-27T17:35:08.579Z,59.15
2023-02-27T17:37:36.987Z,59.35
2023-02-27T17:40:06.079Z,59.44
2023-02-27T17:42:39.693Z,59.74
2023-02-27T17:45:08.351Z,59.82
2023-02-27T17:47:36.070Z,60.30
2023-02-27T17:50:05.582Z,60.70
2023-02-27T17:52:39.462Z,63.33
2023-02-27T17:55:09.141Z,63.30
2023-02-27T17:57:38.080Z,62.45
2023-02-27T18:00:09.339Z,62.26
2023-02-27T18:02:37.803Z,62.47
2023-02-27T18:05:06.908Z,63.29
2023-02-27T18:07:35.082Z,61.97
2023-02-27T18:10:03.739Z,61.85
2023-02-27T18:12:31.411Z,61.47
2023-02-27T18:14:59.300Z,61.19
2023-02-27T18:17:27.021Z,61.06
2023-02-27T18:19:55.143Z,60.87
2023-02-27T18:22:23.203Z,60.13
2023-02-27T18:24:55.539Z,59.86
2023-02-27T18:27:23.503Z,59.48
2023-02-27T18:29:51.559Z,59.56
2023-02-27T18:32:20.453Z,59.78
2023-02-27T18:34:48.235Z,59.45
2023-02-27T18:37:16.202Z,59.59
2023-02-27T18:39:44.681Z,59.61
2023-02-27T18:42:12.646Z,59.66
2023-02-27T18:44:41.894Z,59.59
2023-02-27T18:47:10.221Z,59.85
2023-02-27T18:49:38.710Z,60.15
2023-02-27T18:52:07.403Z,60.43
2023-02-27T18:54:34.690Z,60.38
2023-02-27T18:57:02.660Z,60.42
2023-02-27T18:59:30.596Z,60.28
2023-02-27T19:01:58.556Z,61.06
2023-02-27T19:04:29.027Z,61.14
2023-02-27T19:06:57.213Z,60.92
2023-02-27T19:09:31.460Z,61.14
2023-02-27T19:12:00.562Z,61.32
2023-02-27T19:14:28.194Z,61.45
2023-02-27T19:16:57.196Z,62.93
2023-02-27T19:19:28.593Z,63.76
2023-02-27T19:21:57.304Z,63.94
2023-02-27T19:24:25.733Z,64.60
2023-02-27T19:26:53.718Z,64.78
2023-02-27T19:29:22.853Z,65.87
2023-02-27T19:31:50.479Z,65.39
2023-02-27T19:34:20.079Z,65.16
2023-02-27T19:36:48.073Z,66.08
2023-02-27T19:39:15.759Z,66.13
2023-02-27T19:41:44.172Z,65.12
2023-02-27T19:44:13.581Z,66.51
2023-02-27T19:46:42.126Z,66.45
2023-02-27T19:49:11.830Z,65.59
2023-02-27T19:51:41.584Z,66.06
2023-02-27T19:54:15.661Z,65.73
2023-02-27T19:56:43.439Z,67.50
2023-02-27T19:59:12.394Z,67.41
2023-02-27T20:01:43.530Z,67.33
2023-02-27T20:04:12.162Z,67.60
2023-02-27T20:06:44.523Z,67.34
2023-02-27T20:09:16.170Z,67.81
2023-02-27T20:11:45.709Z,67.49
2023-02-27T20:14:16.647Z,68.13
2023-02-27T20:16:45.651Z,68.91
2023-02-27T20:19:16.777Z,69.31
2023-02-27T20:21:46.099Z,68.48
2023-02-27T20:24:16.406Z,69.21
2023-02-27T20:26:52.913Z,70.75
2023-02-27T20:29:24.057Z,71.06
2023-02-27T20:31:53.312Z,70.92
2023-02-27T20:34:26.483Z,70.54
2023-02-27T20:36:55.628Z,69.91
2023-02-27T20:39:23.376Z,69.09
2023-02-27T20:41:51.334Z,69.47
2023-02-27T20:44:19.331Z,69.81
2023-02-27T20:46:49.396Z,70.32
2023-02-27T20:49:17.626Z,69.56
2023-02-27T20:51:45.837Z,70.61
2023-02-27T20:54:16.916Z,70.40
2023-02-27T20:56:44.942Z,71.20
2023-02-27T20:59:15.349Z,71.84
2023-02-27T21:01:51.783Z,72.18
2023-02-27T21:04:21.419Z,72.58
2023-02-27T21:06:48.917Z,72.25
2023-02-27T21:09:16.720Z,72.52
2023-02-27T21:11:44.420Z,72.16
2023-02-27T21:14:12.767Z,71.81
2023-02-27T21:16:41.063Z,72.62
2023-02-27T21:19:09.176Z,72.55
2023-02-27T21:21:40.616Z,73.20
2023-02-27T21:24:08.210Z,73.64
2023-02-27T21:26:39.489Z,74.02
2023-02-27T21:29:13.319Z,74.38
2023-02-27T21:31:42.384Z,74.43
2023-02-27T21:34:13.501Z,73.98
2023-02-27T21:36:42.955Z,73.62
2023-02-27T21:39:15.704Z,73.93
2023-02-27T21:41:52.266Z,74.48
2023-02-27T21:44:21.210Z,75.21
2023-02-27T21:46:48.264Z,74.94
2023-02-27T21:49:23.543Z,75.31
2023-02-27T21:51:50.659Z,75.37
2023-02-27T21:54:18.922Z,75.51
2023-02-27T21:56:47.384Z,75.59
2023-02-27T21:59:15.134Z,75.29
2023-02-27T22:01:47.157Z,75.37
2023-02-27T22:04:15.424Z,75.58
2023-02-27T22:06:42.253Z,74.58
2023-02-27T22:09:09.150Z,74.95
2023-02-27T22:11:36.424Z,75.30
2023-02-27T22:14:05.930Z,75.84
2023-02-27T22:16:33.326Z,75.64
2023-02-27T22:19:05.590Z,75.62
2023-02-27T22:21:32.716Z,75.54
2023-02-27T22:24:00.001Z,75.71
2023-02-27T22:26:28.393Z,76.28
2023-02-27T22:28:57.316Z,76.58
2023-02-27T22:31:34.007Z,76.75
2023-02-27T22:34:12.289Z,76.94
2023-02-27T22:36:41.754Z,77.18
2023-02-27T22:39:10.403Z,77.12
2023-02-27T22:41:39.589Z,76.69
2023-02-27T22:44:07.886Z,76.76
2023-02-27T22:46:40.568Z,76.64
2023-02-27T22:49:13.522Z,76.56
2023-02-27T22:51:40.584Z,76.39
2023-02-27T22:54:08.742Z,76.11
2023-02-27T22:56:36.840Z,75.79
2023-02-27T22:59:04.896Z,76.39
2023-02-27T23:01:34.933Z,76.96
2023-02-27T23:04:05.127Z,76.52
2023-02-27T23:06:35.572Z,76.07
2023-02-27T23:09:04.304Z,75.74
2023-02-27T23:11:31.863Z,75.71
2023-02-27T23:13:59.002Z,76.72
2023-02-27T23:16:26.171Z,76.23
2023-02-27T23:18:55.806Z,76.73
2023-02-27T23:21:26.028Z,76.90
2023-02-27T23:23:58.156Z,77.06
2023-02-27T23:26:28.479Z,76.95
2023-02-27T23:28:56.721Z,76.88
2023-02-27T23:31:23.827Z,76.82
2023-02-27T23:33:50.995Z,76.66
2023-02-27T23:36:18.023Z,76.36
2023-02-27T23:38:48.539Z,76.21
2023-02-27T23:41:20.834Z,76.14
2023-02-27T23:43:52.717Z,76.88
2023-02-27T23:46:20.497Z,77.12
2023-02-27T23:48:48.062Z,77.29
2023-02-27T23:51:15.892Z,77.41
2023-02-27T23:53:43.055Z,77.04
2023-02-27T23:56:24.983Z,76.84
2023-02-27T23:58:58.306Z,77.40
